Brasher Falls, New York
Current Conditions -  °F | °C
As of 9:53 AM on Monday 22 Dec 2014 (Local Time) from KMSS Reporting Station
Haze Haze  
Wind Chill:   Ceiling: 2800
Heat Index: 20°   Visibility: 6mi
Dew Point: 15°   Wind: 9mph
Humidity: 81%   Direction: 70°ENE
Pressure: 30.39"   Gusts: NA
Location:  44.81°N, 74.77°W
Report Text: KMSS 221453Z AUTO 07008KT 6SM HZ OVC028 M07/M09 A3039 RMK AO2 SLP301 T10671094 57003
Loading
Personal Weather Stations






























Interactive Weather Map New forecast layout! Learn more

10-Day Weather Forecast

Advertisements
Track Severe Weather on mobile